sensor_id;sensor_type;location;lat;lon;timestamp;P1;durP1;ratioP1;P2;durP2;ratioP2
67889;SDS011;54685;52.082;5.426;2024-01-30T00:01:24;18.45;;;12.80;;
67889;SDS011;54685;52.082;5.426;2024-01-30T00:03:51;17.13;;;11.65;;
67889;SDS011;54685;52.082;5.426;2024-01-30T00:06:18;20.60;;;11.60;;
67889;SDS011;54685;52.082;5.426;2024-01-30T00:08:47;14.80;;;11.73;;
67889;SDS011;54685;52.082;5.426;2024-01-30T00:11:15;18.75;;;12.05;;
67889;SDS011;54685;52.082;5.426;2024-01-30T00:13:42;13.80;;;11.88;;
67889;SDS011;54685;52.082;5.426;2024-01-30T00:16:19;16.60;;;12.40;;
67889;SDS011;54685;52.082;5.426;2024-01-30T00:18:48;15.80;;;11.85;;
67889;SDS011;54685;52.082;5.426;2024-01-30T00:21:15;18.00;;;11.93;;
67889;SDS011;54685;52.082;5.426;2024-01-30T00:23:41;19.48;;;12.18;;
67889;SDS011;54685;52.082;5.426;2024-01-30T00:26:08;16.10;;;12.32;;
67889;SDS011;54685;52.082;5.426;2024-01-30T00:28:36;17.33;;;12.40;;
67889;SDS011;54685;52.082;5.426;2024-01-30T00:31:03;14.80;;;11.95;;
67889;SDS011;54685;52.082;5.426;2024-01-30T00:33:30;17.63;;;11.73;;
67889;SDS011;54685;52.082;5.426;2024-01-30T00:35:57;18.85;;;12.57;;
67889;SDS011;54685;52.082;5.426;2024-01-30T00:38:24;19.33;;;11.77;;
67889;SDS011;54685;52.082;5.426;2024-01-30T00:40:51;16.58;;;11.57;;
67889;SDS011;54685;52.082;5.426;2024-01-30T00:43:18;16.25;;;11.75;;
67889;SDS011;54685;52.082;5.426;2024-01-30T00:45:46;15.60;;;10.98;;
67889;SDS011;54685;52.082;5.426;2024-01-30T00:48:13;16.75;;;12.20;;
67889;SDS011;54685;52.082;5.426;2024-01-30T00:50:42;17.60;;;12.10;;
67889;SDS011;54685;52.082;5.426;2024-01-30T00:53:09;15.43;;;11.75;;
67889;SDS011;54685;52.082;5.426;2024-01-30T00:55:36;18.58;;;11.77;;
67889;SDS011;54685;52.082;5.426;2024-01-30T00:58:04;18.02;;;12.27;;
67889;SDS011;54685;52.082;5.426;2024-01-30T01:00:31;13.90;;;10.90;;
67889;SDS011;54685;52.082;5.426;2024-01-30T01:03:01;18.17;;;11.30;;
67889;SDS011;54685;52.082;5.426;2024-01-30T01:05:29;16.70;;;10.82;;
67889;SDS011;54685;52.082;5.426;2024-01-30T01:07:57;17.70;;;11.05;;
67889;SDS011;54685;52.082;5.426;2024-01-30T01:10:24;14.98;;;10.70;;
67889;SDS011;54685;52.082;5.426;2024-01-30T01:12:51;13.88;;;11.05;;
67889;SDS011;54685;52.082;5.426;2024-01-30T01:15:18;18.45;;;10.90;;
67889;SDS011;54685;52.082;5.426;2024-01-30T01:17:45;13.95;;;10.13;;
67889;SDS011;54685;52.082;5.426;2024-01-30T01:20:12;13.98;;;10.20;;
67889;SDS011;54685;52.082;5.426;2024-01-30T01:22:39;15.80;;;10.77;;
67889;SDS011;54685;52.082;5.426;2024-01-30T01:25:06;14.90;;;10.27;;
67889;SDS011;54685;52.082;5.426;2024-01-30T01:27:36;15.70;;;10.50;;
67889;SDS011;54685;52.082;5.426;2024-01-30T01:30:10;14.32;;;10.05;;
67889;SDS011;54685;52.082;5.426;2024-01-30T01:32:38;13.48;;;9.40;;
67889;SDS011;54685;52.082;5.426;2024-01-30T01:35:05;13.60;;;9.90;;
67889;SDS011;54685;52.082;5.426;2024-01-30T01:37:32;13.65;;;10.57;;
67889;SDS011;54685;52.082;5.426;2024-01-30T01:39:59;14.73;;;10.45;;
67889;SDS011;54685;52.082;5.426;2024-01-30T01:42:26;13.73;;;9.88;;
67889;SDS011;54685;52.082;5.426;2024-01-30T01:44:53;12.50;;;9.35;;
67889;SDS011;54685;52.082;5.426;2024-01-30T01:47:20;13.43;;;9.98;;
67889;SDS011;54685;52.082;5.426;2024-01-30T01:49:47;11.52;;;9.60;;
67889;SDS011;54685;52.082;5.426;2024-01-30T01:52:14;13.70;;;9.93;;
67889;SDS011;54685;52.082;5.426;2024-01-30T01:54:42;14.60;;;9.50;;
67889;SDS011;54685;52.082;5.426;2024-01-30T01:57:09;12.90;;;9.80;;
67889;SDS011;54685;52.082;5.426;2024-01-30T01:59:36;17.17;;;9.60;;
67889;SDS011;54685;52.082;5.426;2024-01-30T02:02:03;15.27;;;10.23;;
67889;SDS011;54685;52.082;5.426;2024-01-30T02:04:31;13.00;;;9.85;;
67889;SDS011;54685;52.082;5.426;2024-01-30T02:06:58;13.20;;;9.80;;
67889;SDS011;54685;52.082;5.426;2024-01-30T02:09:25;13.80;;;9.65;;
67889;SDS011;54685;52.082;5.426;2024-01-30T02:11:52;13.20;;;10.25;;
67889;SDS011;54685;52.082;5.426;2024-01-30T02:14:19;15.88;;;9.38;;
67889;SDS011;54685;52.082;5.426;2024-01-30T02:16:46;12.13;;;10.07;;
67889;SDS011;54685;52.082;5.426;2024-01-30T02:19:13;14.05;;;9.65;;
67889;SDS011;54685;52.082;5.426;2024-01-30T02:21:40;11.63;;;8.95;;
67889;SDS011;54685;52.082;5.426;2024-01-30T02:24:10;13.32;;;9.35;;
67889;SDS011;54685;52.082;5.426;2024-01-30T02:26:37;12.75;;;9.32;;
67889;SDS011;54685;52.082;5.426;2024-01-30T02:29:04;14.68;;;9.32;;
67889;SDS011;54685;52.082;5.426;2024-01-30T02:31:30;12.52;;;9.82;;
67889;SDS011;54685;52.082;5.426;2024-01-30T02:33:57;14.05;;;10.45;;
67889;SDS011;54685;52.082;5.426;2024-01-30T02:36:24;15.50;;;10.38;;
67889;SDS011;54685;52.082;5.426;2024-01-30T02:38:51;16.38;;;10.88;;
67889;SDS011;54685;52.082;5.426;2024-01-30T02:41:18;17.73;;;12.15;;
67889;SDS011;54685;52.082;5.426;2024-01-30T02:43:47;20.40;;;13.40;;
67889;SDS011;54685;52.082;5.426;2024-01-30T02:46:14;22.85;;;13.93;;
67889;SDS011;54685;52.082;5.426;2024-01-30T02:48:41;22.40;;;14.57;;
67889;SDS011;54685;52.082;5.426;2024-01-30T02:51:08;24.35;;;14.60;;
67889;SDS011;54685;52.082;5.426;2024-01-30T02:53:35;21.27;;;14.32;;
67889;SDS011;54685;52.082;5.426;2024-01-30T02:56:02;20.95;;;13.95;;
67889;SDS011;54685;52.082;5.426;2024-01-30T02:58:29;22.60;;;14.30;;
67889;SDS011;54685;52.082;5.426;2024-01-30T03:00:56;19.88;;;13.52;;
67889;SDS011;54685;52.082;5.426;2024-01-30T03:03:23;21.42;;;13.13;;
67889;SDS011;54685;52.082;5.426;2024-01-30T03:05:50;21.40;;;12.40;;
67889;SDS011;54685;52.082;5.426;2024-01-30T03:08:17;21.02;;;13.57;;
67889;SDS011;54685;52.082;5.426;2024-01-30T03:10:44;14.65;;;11.20;;
67889;SDS011;54685;52.082;5.426;2024-01-30T03:13:11;15.35;;;11.38;;
67889;SDS011;54685;52.082;5.426;2024-01-30T03:15:38;16.08;;;10.55;;
67889;SDS011;54685;52.082;5.426;2024-01-30T03:18:05;15.38;;;10.55;;
67889;SDS011;54685;52.082;5.426;2024-01-30T03:20:35;15.13;;;10.52;;
67889;SDS011;54685;52.082;5.426;2024-01-30T03:23:01;13.18;;;9.20;;
67889;SDS011;54685;52.082;5.426;2024-01-30T03:25:29;12.45;;;9.35;;
67889;SDS011;54685;52.082;5.426;2024-01-30T03:27:55;16.30;;;9.45;;
67889;SDS011;54685;52.082;5.426;2024-01-30T03:30:22;10.95;;;8.90;;
67889;SDS011;54685;52.082;5.426;2024-01-30T03:32:49;17.27;;;9.45;;
67889;SDS011;54685;52.082;5.426;2024-01-30T03:35:16;11.52;;;8.40;;
67889;SDS011;54685;52.082;5.426;2024-01-30T03:37:45;14.38;;;9.05;;
67889;SDS011;54685;52.082;5.426;2024-01-30T03:40:12;12.13;;;8.18;;
67889;SDS011;54685;52.082;5.426;2024-01-30T03:42:39;13.68;;;8.63;;
67889;SDS011;54685;52.082;5.426;2024-01-30T03:45:05;11.68;;;8.52;;
67889;SDS011;54685;52.082;5.426;2024-01-30T03:47:36;11.15;;;8.48;;
67889;SDS011;54685;52.082;5.426;2024-01-30T03:50:02;13.02;;;8.30;;
67889;SDS011;54685;52.082;5.426;2024-01-30T03:52:31;12.18;;;8.35;;
67889;SDS011;54685;52.082;5.426;2024-01-30T03:54:57;9.35;;;7.70;;
67889;SDS011;54685;52.082;5.426;2024-01-30T03:57:24;10.43;;;8.15;;
67889;SDS011;54685;52.082;5.426;2024-01-30T03:59:51;10.00;;;7.55;;
67889;SDS011;54685;52.082;5.426;2024-01-30T04:02:18;11.20;;;8.43;;
67889;SDS011;54685;52.082;5.426;2024-01-30T04:04:45;10.70;;;7.88;;
67889;SDS011;54685;52.082;5.426;2024-01-30T04:07:13;12.57;;;7.50;;
67889;SDS011;54685;52.082;5.426;2024-01-30T04:09:39;12.52;;;7.20;;
67889;SDS011;54685;52.082;5.426;2024-01-30T04:12:06;12.00;;;7.30;;
67889;SDS011;54685;52.082;5.426;2024-01-30T04:14:34;13.05;;;7.80;;
67889;SDS011;54685;52.082;5.426;2024-01-30T04:17:01;10.93;;;7.72;;
67889;SDS011;54685;52.082;5.426;2024-01-30T04:19:28;10.77;;;7.45;;
67889;SDS011;54685;52.082;5.426;2024-01-30T04:21:55;12.95;;;7.75;;
67889;SDS011;54685;52.082;5.426;2024-01-30T04:24:22;10.65;;;7.32;;
67889;SDS011;54685;52.082;5.426;2024-01-30T04:26:49;9.85;;;7.40;;
67889;SDS011;54685;52.082;5.426;2024-01-30T04:29:15;10.43;;;7.15;;
67889;SDS011;54685;52.082;5.426;2024-01-30T04:31:42;9.43;;;7.90;;
67889;SDS011;54685;52.082;5.426;2024-01-30T04:34:09;8.88;;;7.53;;
67889;SDS011;54685;52.082;5.426;2024-01-30T04:36:36;12.32;;;7.68;;
67889;SDS011;54685;52.082;5.426;2024-01-30T04:39:03;10.55;;;7.78;;
67889;SDS011;54685;52.082;5.426;2024-01-30T04:41:30;13.48;;;7.70;;
67889;SDS011;54685;52.082;5.426;2024-01-30T04:43:58;12.10;;;7.90;;
67889;SDS011;54685;52.082;5.426;2024-01-30T04:46:24;10.20;;;7.25;;
67889;SDS011;54685;52.082;5.426;2024-01-30T04:48:51;11.65;;;8.20;;
67889;SDS011;54685;52.082;5.426;2024-01-30T04:51:18;9.50;;;7.10;;
67889;SDS011;54685;52.082;5.426;2024-01-30T04:53:45;10.48;;;7.60;;
67889;SDS011;54685;52.082;5.426;2024-01-30T04:56:12;11.65;;;7.25;;
67889;SDS011;54685;52.082;5.426;2024-01-30T04:58:39;11.05;;;7.65;;
67889;SDS011;54685;52.082;5.426;2024-01-30T05:01:06;12.15;;;7.90;;
67889;SDS011;54685;52.082;5.426;2024-01-30T05:03:33;10.80;;;7.43;;
67889;SDS011;54685;52.082;5.426;2024-01-30T05:06:01;13.10;;;8.23;;
67889;SDS011;54685;52.082;5.426;2024-01-30T05:08:28;10.43;;;7.10;;
67889;SDS011;54685;52.082;5.426;2024-01-30T05:10:55;13.50;;;7.68;;
67889;SDS011;54685;52.082;5.426;2024-01-30T05:13:22;12.02;;;7.65;;
67889;SDS011;54685;52.082;5.426;2024-01-30T05:15:48;12.02;;;7.53;;
67889;SDS011;54685;52.082;5.426;2024-01-30T05:18:15;10.88;;;7.25;;
67889;SDS011;54685;52.082;5.426;2024-01-30T05:20:42;11.70;;;7.88;;
67889;SDS011;54685;52.082;5.426;2024-01-30T05:23:09;12.27;;;7.55;;
67889;SDS011;54685;52.082;5.426;2024-01-30T05:25:39;12.02;;;7.40;;
67889;SDS011;54685;52.082;5.426;2024-01-30T05:28:05;14.55;;;8.63;;
67889;SDS011;54685;52.082;5.426;2024-01-30T05:30:32;10.88;;;7.30;;
67889;SDS011;54685;52.082;5.426;2024-01-30T05:32:59;14.23;;;7.63;;
67889;SDS011;54685;52.082;5.426;2024-01-30T05:35:26;10.85;;;7.57;;
67889;SDS011;54685;52.082;5.426;2024-01-30T05:37:52;11.48;;;7.53;;
67889;SDS011;54685;52.082;5.426;2024-01-30T05:40:19;9.27;;;7.53;;
67889;SDS011;54685;52.082;5.426;2024-01-30T05:42:47;12.80;;;7.35;;
67889;SDS011;54685;52.082;5.426;2024-01-30T05:45:14;11.43;;;7.60;;
67889;SDS011;54685;52.082;5.426;2024-01-30T05:47:41;13.27;;;7.70;;
67889;SDS011;54685;52.082;5.426;2024-01-30T05:50:07;10.85;;;7.40;;
67889;SDS011;54685;52.082;5.426;2024-01-30T05:52:34;13.95;;;8.73;;
67889;SDS011;54685;52.082;5.426;2024-01-30T05:55:01;10.40;;;8.13;;
67889;SDS011;54685;52.082;5.426;2024-01-30T05:57:29;11.32;;;7.95;;
67889;SDS011;54685;52.082;5.426;2024-01-30T05:59:56;9.23;;;7.10;;
67889;SDS011;54685;52.082;5.426;2024-01-30T06:02:23;10.75;;;8.23;;
67889;SDS011;54685;52.082;5.426;2024-01-30T06:04:49;10.20;;;7.53;;
67889;SDS011;54685;52.082;5.426;2024-01-30T06:07:16;9.52;;;7.57;;
67889;SDS011;54685;52.082;5.426;2024-01-30T06:09:44;10.77;;;7.30;;
67889;SDS011;54685;52.082;5.426;2024-01-30T06:12:12;13.00;;;7.50;;
67889;SDS011;54685;52.082;5.426;2024-01-30T06:14:39;11.40;;;8.15;;
67889;SDS011;54685;52.082;5.426;2024-01-30T06:17:12;10.68;;;8.15;;
67889;SDS011;54685;52.082;5.426;2024-01-30T06:19:40;10.85;;;7.78;;
67889;SDS011;54685;52.082;5.426;2024-01-30T06:22:07;9.65;;;7.88;;
67889;SDS011;54685;52.082;5.426;2024-01-30T06:24:34;13.57;;;7.72;;
67889;SDS011;54685;52.082;5.426;2024-01-30T06:27:01;11.35;;;7.25;;
67889;SDS011;54685;52.082;5.426;2024-01-30T06:29:27;10.07;;;7.60;;
67889;SDS011;54685;52.082;5.426;2024-01-30T06:31:55;11.98;;;7.53;;
67889;SDS011;54685;52.082;5.426;2024-01-30T06:34:22;11.90;;;7.60;;
67889;SDS011;54685;52.082;5.426;2024-01-30T06:36:49;8.93;;;7.10;;
67889;SDS011;54685;52.082;5.426;2024-01-30T06:39:16;9.10;;;7.28;;
67889;SDS011;54685;52.082;5.426;2024-01-30T06:41:42;10.63;;;7.60;;
67889;SDS011;54685;52.082;5.426;2024-01-30T06:44:09;12.45;;;8.40;;
67889;SDS011;54685;52.082;5.426;2024-01-30T06:46:36;12.38;;;8.10;;
67889;SDS011;54685;52.082;5.426;2024-01-30T06:49:04;10.15;;;7.78;;
67889;SDS011;54685;52.082;5.426;2024-01-30T06:51:31;10.23;;;7.90;;
67889;SDS011;54685;52.082;5.426;2024-01-30T06:53:58;12.25;;;7.57;;
67889;SDS011;54685;52.082;5.426;2024-01-30T06:56:24;11.05;;;7.93;;
67889;SDS011;54685;52.082;5.426;2024-01-30T06:58:51;8.95;;;7.70;;
67889;SDS011;54685;52.082;5.426;2024-01-30T07:01:18;10.70;;;7.65;;
67889;SDS011;54685;52.082;5.426;2024-01-30T07:03:45;11.82;;;7.60;;
67889;SDS011;54685;52.082;5.426;2024-01-30T07:06:12;14.18;;;8.02;;
67889;SDS011;54685;52.082;5.426;2024-01-30T07:08:39;14.15;;;8.63;;
67889;SDS011;54685;52.082;5.426;2024-01-30T07:11:06;14.65;;;8.90;;
67889;SDS011;54685;52.082;5.426;2024-01-30T07:13:34;11.77;;;8.10;;
67889;SDS011;54685;52.082;5.426;2024-01-30T07:16:01;12.80;;;8.15;;
67889;SDS011;54685;52.082;5.426;2024-01-30T07:18:28;13.32;;;8.27;;
67889;SDS011;54685;52.082;5.426;2024-01-30T07:20:55;13.60;;;8.45;;
67889;SDS011;54685;52.082;5.426;2024-01-30T07:23:22;13.50;;;8.25;;
67889;SDS011;54685;52.082;5.426;2024-01-30T07:25:49;11.48;;;7.82;;
67889;SDS011;54685;52.082;5.426;2024-01-30T07:28:16;12.90;;;8.40;;
67889;SDS011;54685;52.082;5.426;2024-01-30T07:30:43;11.13;;;7.90;;
67889;SDS011;54685;52.082;5.426;2024-01-30T07:33:10;11.82;;;8.10;;
67889;SDS011;54685;52.082;5.426;2024-01-30T07:35:37;10.93;;;8.15;;
67889;SDS011;54685;52.082;5.426;2024-01-30T07:38:04;13.30;;;8.18;;
67889;SDS011;54685;52.082;5.426;2024-01-30T07:40:31;14.82;;;8.10;;
67889;SDS011;54685;52.082;5.426;2024-01-30T07:42:59;11.90;;;8.40;;
67889;SDS011;54685;52.082;5.426;2024-01-30T07:45:27;12.38;;;8.05;;
67889;SDS011;54685;52.082;5.426;2024-01-30T07:47:58;10.60;;;8.07;;
67889;SDS011;54685;52.082;5.426;2024-01-30T07:50:28;8.85;;;7.63;;
67889;SDS011;54685;52.082;5.426;2024-01-30T07:52:55;13.18;;;7.40;;
67889;SDS011;54685;52.082;5.426;2024-01-30T07:55:23;15.95;;;8.35;;
67889;SDS011;54685;52.082;5.426;2024-01-30T07:57:58;12.55;;;7.78;;
67889;SDS011;54685;52.082;5.426;2024-01-30T08:00:26;9.88;;;7.90;;
67889;SDS011;54685;52.082;5.426;2024-01-30T08:02:55;10.52;;;7.65;;
67889;SDS011;54685;52.082;5.426;2024-01-30T08:05:22;11.32;;;7.72;;
67889;SDS011;54685;52.082;5.426;2024-01-30T08:07:50;12.40;;;7.68;;
67889;SDS011;54685;52.082;5.426;2024-01-30T08:10:17;9.68;;;7.32;;
67889;SDS011;54685;52.082;5.426;2024-01-30T08:12:45;13.93;;;7.70;;
67889;SDS011;54685;52.082;5.426;2024-01-30T08:15:12;13.63;;;8.15;;
67889;SDS011;54685;52.082;5.426;2024-01-30T08:17:39;10.40;;;7.25;;
67889;SDS011;54685;52.082;5.426;2024-01-30T08:20:06;13.18;;;7.78;;
67889;SDS011;54685;52.082;5.426;2024-01-30T08:22:35;13.95;;;7.18;;
67889;SDS011;54685;52.082;5.426;2024-01-30T08:25:02;12.40;;;7.55;;
67889;SDS011;54685;52.082;5.426;2024-01-30T08:27:29;11.60;;;7.07;;
67889;SDS011;54685;52.082;5.426;2024-01-30T08:29:55;14.02;;;7.20;;
67889;SDS011;54685;52.082;5.426;2024-01-30T08:32:22;9.82;;;6.53;;
67889;SDS011;54685;52.082;5.426;2024-01-30T08:34:50;14.45;;;7.28;;
67889;SDS011;54685;52.082;5.426;2024-01-30T08:37:17;12.63;;;7.85;;
67889;SDS011;54685;52.082;5.426;2024-01-30T08:39:44;16.90;;;8.23;;
67889;SDS011;54685;52.082;5.426;2024-01-30T08:42:11;15.93;;;8.40;;
67889;SDS011;54685;52.082;5.426;2024-01-30T08:44:38;14.52;;;7.63;;
67889;SDS011;54685;52.082;5.426;2024-01-30T08:47:05;14.32;;;8.23;;
67889;SDS011;54685;52.082;5.426;2024-01-30T08:49:32;14.55;;;9.35;;
67889;SDS011;54685;52.082;5.426;2024-01-30T08:51:59;14.75;;;7.72;;
67889;SDS011;54685;52.082;5.426;2024-01-30T08:54:26;13.90;;;8.23;;
67889;SDS011;54685;52.082;5.426;2024-01-30T08:56:53;17.25;;;8.77;;
67889;SDS011;54685;52.082;5.426;2024-01-30T08:59:21;23.65;;;10.43;;
67889;SDS011;54685;52.082;5.426;2024-01-30T09:01:48;20.83;;;9.00;;
67889;SDS011;54685;52.082;5.426;2024-01-30T09:04:29;16.52;;;8.45;;
67889;SDS011;54685;52.082;5.426;2024-01-30T09:06:56;24.67;;;9.30;;
67889;SDS011;54685;52.082;5.426;2024-01-30T09:09:23;16.60;;;7.80;;
67889;SDS011;54685;52.082;5.426;2024-01-30T09:11:50;17.60;;;8.82;;
67889;SDS011;54685;52.082;5.426;2024-01-30T09:14:16;17.05;;;8.52;;
67889;SDS011;54685;52.082;5.426;2024-01-30T09:16:43;15.20;;;7.38;;
67889;SDS011;54685;52.082;5.426;2024-01-30T09:19:10;15.55;;;7.50;;
67889;SDS011;54685;52.082;5.426;2024-01-30T09:21:37;17.00;;;7.70;;
67889;SDS011;54685;52.082;5.426;2024-01-30T09:24:04;18.77;;;6.68;;
67889;SDS011;54685;52.082;5.426;2024-01-30T09:26:31;15.45;;;7.22;;
67889;SDS011;54685;52.082;5.426;2024-01-30T09:28:58;13.05;;;7.35;;
67889;SDS011;54685;52.082;5.426;2024-01-30T09:31:25;12.43;;;6.38;;
67889;SDS011;54685;52.082;5.426;2024-01-30T09:33:51;14.35;;;7.30;;
67889;SDS011;54685;52.082;5.426;2024-01-30T09:36:20;15.15;;;7.57;;
67889;SDS011;54685;52.082;5.426;2024-01-30T09:38:47;13.90;;;7.55;;
67889;SDS011;54685;52.082;5.426;2024-01-30T09:41:14;14.93;;;7.40;;
67889;SDS011;54685;52.082;5.426;2024-01-30T09:43:41;12.98;;;7.22;;
67889;SDS011;54685;52.082;5.426;2024-01-30T09:46:14;14.48;;;7.35;;
67889;SDS011;54685;52.082;5.426;2024-01-30T09:48:42;16.35;;;7.15;;
67889;SDS011;54685;52.082;5.426;2024-01-30T09:51:09;15.27;;;7.88;;
67889;SDS011;54685;52.082;5.426;2024-01-30T09:53:38;11.38;;;7.13;;
67889;SDS011;54685;52.082;5.426;2024-01-30T09:56:06;12.20;;;6.78;;
67889;SDS011;54685;52.082;5.426;2024-01-30T09:58:33;10.70;;;7.32;;
67889;SDS011;54685;52.082;5.426;2024-01-30T10:01:00;13.48;;;7.35;;
67889;SDS011;54685;52.082;5.426;2024-01-30T10:03:27;12.40;;;7.40;;
67889;SDS011;54685;52.082;5.426;2024-01-30T10:05:54;14.20;;;7.30;;
67889;SDS011;54685;52.082;5.426;2024-01-30T10:08:22;16.00;;;7.32;;
67889;SDS011;54685;52.082;5.426;2024-01-30T10:10:49;12.93;;;6.90;;
67889;SDS011;54685;52.082;5.426;2024-01-30T10:13:16;12.13;;;6.30;;
67889;SDS011;54685;52.082;5.426;2024-01-30T10:15:43;13.07;;;7.07;;
67889;SDS011;54685;52.082;5.426;2024-01-30T10:18:11;11.70;;;6.93;;
67889;SDS011;54685;52.082;5.426;2024-01-30T10:20:38;13.07;;;7.45;;
67889;SDS011;54685;52.082;5.426;2024-01-30T10:23:05;13.57;;;7.10;;
67889;SDS011;54685;52.082;5.426;2024-01-30T10:25:32;21.17;;;7.57;;
67889;SDS011;54685;52.082;5.426;2024-01-30T10:27:59;12.13;;;6.97;;
67889;SDS011;54685;52.082;5.426;2024-01-30T10:30:26;19.80;;;7.15;;
67889;SDS011;54685;52.082;5.426;2024-01-30T10:32:58;14.00;;;7.50;;
67889;SDS011;54685;52.082;5.426;2024-01-30T10:35:27;19.27;;;7.90;;
67889;SDS011;54685;52.082;5.426;2024-01-30T10:37:54;12.13;;;6.53;;
67889;SDS011;54685;52.082;5.426;2024-01-30T10:40:24;19.75;;;6.57;;
67889;SDS011;54685;52.082;5.426;2024-01-30T10:42:55;13.15;;;6.38;;
67889;SDS011;54685;52.082;5.426;2024-01-30T10:45:23;16.88;;;7.03;;
67889;SDS011;54685;52.082;5.426;2024-01-30T10:47:54;13.77;;;6.57;;
67889;SDS011;54685;52.082;5.426;2024-01-30T10:50:25;14.77;;;7.25;;
67889;SDS011;54685;52.082;5.426;2024-01-30T10:52:53;9.70;;;6.50;;
67889;SDS011;54685;52.082;5.426;2024-01-30T10:55:21;10.30;;;6.40;;
67889;SDS011;54685;52.082;5.426;2024-01-30T10:57:50;14.82;;;6.57;;
67889;SDS011;54685;52.082;5.426;2024-01-30T11:00:17;9.93;;;6.07;;
67889;SDS011;54685;52.082;5.426;2024-01-30T11:02:48;18.02;;;6.38;;
67889;SDS011;54685;52.082;5.426;2024-01-30T11:05:25;13.20;;;6.15;;
67889;SDS011;54685;52.082;5.426;2024-01-30T11:07:59;13.38;;;6.47;;
67889;SDS011;54685;52.082;5.426;2024-01-30T11:10:46;15.13;;;6.30;;
67889;SDS011;54685;52.082;5.426;2024-01-30T11:13:15;15.65;;;6.85;;
67889;SDS011;54685;52.082;5.426;2024-01-30T11:15:42;10.75;;;5.97;;
67889;SDS011;54685;52.082;5.426;2024-01-30T11:18:09;10.57;;;6.28;;
67889;SDS011;54685;52.082;5.426;2024-01-30T11:20:36;15.95;;;6.75;;
67889;SDS011;54685;52.082;5.426;2024-01-30T11:23:14;9.77;;;5.03;;
67889;SDS011;54685;52.082;5.426;2024-01-30T11:25:43;11.60;;;5.68;;
67889;SDS011;54685;52.082;5.426;2024-01-30T11:28:14;8.98;;;4.90;;
67889;SDS011;54685;52.082;5.426;2024-01-30T11:30:42;9.88;;;3.55;;
67889;SDS011;54685;52.082;5.426;2024-01-30T11:33:10;11.20;;;3.88;;
67889;SDS011;54685;52.082;5.426;2024-01-30T11:35:39;9.38;;;3.92;;
67889;SDS011;54685;52.082;5.426;2024-01-30T11:38:08;10.25;;;4.03;;
67889;SDS011;54685;52.082;5.426;2024-01-30T11:40:37;9.95;;;4.38;;
67889;SDS011;54685;52.082;5.426;2024-01-30T11:43:05;7.95;;;4.28;;
67889;SDS011;54685;52.082;5.426;2024-01-30T11:45:34;6.93;;;2.70;;
67889;SDS011;54685;52.082;5.426;2024-01-30T11:48:03;7.32;;;2.88;;
67889;SDS011;54685;52.082;5.426;2024-01-30T11:50:34;5.22;;;3.17;;
67889;SDS011;54685;52.082;5.426;2024-01-30T11:53:01;12.98;;;3.10;;
67889;SDS011;54685;52.082;5.426;2024-01-30T11:55:29;7.60;;;2.60;;
67889;SDS011;54685;52.082;5.426;2024-01-30T11:58:01;7.67;;;2.53;;
67889;SDS011;54685;52.082;5.426;2024-01-30T12:00:29;5.75;;;2.05;;
67889;SDS011;54685;52.082;5.426;2024-01-30T12:02:58;7.43;;;2.30;;
67889;SDS011;54685;52.082;5.426;2024-01-30T12:05:28;6.80;;;2.03;;
67889;SDS011;54685;52.082;5.426;2024-01-30T12:07:56;9.38;;;2.80;;
67889;SDS011;54685;52.082;5.426;2024-01-30T12:10:27;7.47;;;2.00;;
67889;SDS011;54685;52.082;5.426;2024-01-30T12:12:54;5.50;;;2.03;;
67889;SDS011;54685;52.082;5.426;2024-01-30T12:15:21;6.50;;;2.03;;
67889;SDS011;54685;52.082;5.426;2024-01-30T12:17:52;4.40;;;1.30;;
67889;SDS011;54685;52.082;5.426;2024-01-30T12:20:19;4.80;;;1.63;;
67889;SDS011;54685;52.082;5.426;2024-01-30T12:22:49;5.85;;;1.52;;
67889;SDS011;54685;52.082;5.426;2024-01-30T12:25:17;4.57;;;1.20;;
67889;SDS011;54685;52.082;5.426;2024-01-30T12:27:50;4.50;;;1.80;;
67889;SDS011;54685;52.082;5.426;2024-01-30T12:30:18;6.53;;;1.58;;
67889;SDS011;54685;52.082;5.426;2024-01-30T12:32:48;6.80;;;1.70;;
67889;SDS011;54685;52.082;5.426;2024-01-30T12:35:17;3.65;;;1.55;;
67889;SDS011;54685;52.082;5.426;2024-01-30T12:37:47;5.18;;;1.95;;
67889;SDS011;54685;52.082;5.426;2024-01-30T12:40:14;7.47;;;1.90;;
67889;SDS011;54685;52.082;5.426;2024-01-30T12:42:42;8.50;;;2.08;;
67889;SDS011;54685;52.082;5.426;2024-01-30T12:45:09;5.40;;;1.63;;
67889;SDS011;54685;52.082;5.426;2024-01-30T12:47:36;8.93;;;1.98;;
67889;SDS011;54685;52.082;5.426;2024-01-30T12:50:03;7.60;;;1.77;;
67889;SDS011;54685;52.082;5.426;2024-01-30T12:52:31;7.47;;;1.70;;
67889;SDS011;54685;52.082;5.426;2024-01-30T12:54:58;9.68;;;1.83;;
67889;SDS011;54685;52.082;5.426;2024-01-30T12:57:25;9.80;;;2.10;;
67889;SDS011;54685;52.082;5.426;2024-01-30T12:59:52;8.13;;;1.80;;
67889;SDS011;54685;52.082;5.426;2024-01-30T13:02:18;6.65;;;1.70;;
67889;SDS011;54685;52.082;5.426;2024-01-30T13:04:45;8.82;;;1.92;;
67889;SDS011;54685;52.082;5.426;2024-01-30T13:07:15;3.70;;;1.48;;
67889;SDS011;54685;52.082;5.426;2024-01-30T13:09:42;4.35;;;1.60;;
67889;SDS011;54685;52.082;5.426;2024-01-30T13:12:10;7.65;;;1.80;;
67889;SDS011;54685;52.082;5.426;2024-01-30T13:14:36;5.40;;;1.60;;
67889;SDS011;54685;52.082;5.426;2024-01-30T13:17:03;2.40;;;1.20;;
67889;SDS011;54685;52.082;5.426;2024-01-30T13:19:30;3.88;;;1.48;;
67889;SDS011;54685;52.082;5.426;2024-01-30T13:21:58;4.97;;;1.90;;
67889;SDS011;54685;52.082;5.426;2024-01-30T13:24:24;6.13;;;1.80;;
67889;SDS011;54685;52.082;5.426;2024-01-30T13:26:51;4.40;;;1.83;;
67889;SDS011;54685;52.082;5.426;2024-01-30T13:29:18;5.10;;;1.92;;
67889;SDS011;54685;52.082;5.426;2024-01-30T13:31:45;4.75;;;2.00;;
67889;SDS011;54685;52.082;5.426;2024-01-30T13:34:13;6.38;;;2.30;;
67889;SDS011;54685;52.082;5.426;2024-01-30T13:36:40;7.05;;;2.25;;
67889;SDS011;54685;52.082;5.426;2024-01-30T13:39:08;6.03;;;1.80;;
67889;SDS011;54685;52.082;5.426;2024-01-30T13:41:36;4.43;;;1.60;;
67889;SDS011;54685;52.082;5.426;2024-01-30T13:44:04;3.42;;;1.48;;
67889;SDS011;54685;52.082;5.426;2024-01-30T13:46:31;2.78;;;1.33;;
67889;SDS011;54685;52.082;5.426;2024-01-30T13:48:58;4.78;;;1.35;;
67889;SDS011;54685;52.082;5.426;2024-01-30T13:51:26;4.55;;;1.20;;
67889;SDS011;54685;52.082;5.426;2024-01-30T13:53:53;3.08;;;0.88;;
67889;SDS011;54685;52.082;5.426;2024-01-30T13:56:20;3.92;;;0.63;;
67889;SDS011;54685;52.082;5.426;2024-01-30T13:58:50;3.08;;;0.60;;
67889;SDS011;54685;52.082;5.426;2024-01-30T14:01:17;3.33;;;0.80;;
67889;SDS011;54685;52.082;5.426;2024-01-30T14:03:44;8.02;;;1.02;;
67889;SDS011;54685;52.082;5.426;2024-01-30T14:06:11;3.70;;;0.88;;
67889;SDS011;54685;52.082;5.426;2024-01-30T14:08:39;4.43;;;0.93;;
67889;SDS011;54685;52.082;5.426;2024-01-30T14:11:08;2.88;;;0.80;;
67889;SDS011;54685;52.082;5.426;2024-01-30T14:13:36;2.95;;;0.88;;
67889;SDS011;54685;52.082;5.426;2024-01-30T14:16:03;2.55;;;0.70;;
67889;SDS011;54685;52.082;5.426;2024-01-30T14:18:32;5.72;;;0.90;;
67889;SDS011;54685;52.082;5.426;2024-01-30T14:20:58;3.60;;;1.08;;
67889;SDS011;54685;52.082;5.426;2024-01-30T14:23:25;3.15;;;0.80;;
67889;SDS011;54685;52.082;5.426;2024-01-30T14:25:52;1.92;;;0.80;;
67889;SDS011;54685;52.082;5.426;2024-01-30T14:28:19;4.20;;;1.00;;
67889;SDS011;54685;52.082;5.426;2024-01-30T14:30:45;6.68;;;1.08;;
67889;SDS011;54685;52.082;5.426;2024-01-30T14:33:13;3.92;;;1.23;;
67889;SDS011;54685;52.082;5.426;2024-01-30T14:35:40;5.20;;;1.00;;
67889;SDS011;54685;52.082;5.426;2024-01-30T14:38:06;4.32;;;1.25;;